Time;durP1;ratioP1;P1;durP2;ratioP2;P2;SDS_P1;SDS_P2;PMS_P1;PMS_P2;Temp;Humidity;BMP_temperature;BMP_pressure;BME280_temperature;BME280_humidity;BME280_pressure;Samples;Min_cycle;Max_cycle;Signal;HPM_P1;HPM_P2
2022/01/15 00:00:59;;;;;;;;;;;;;;;-21.60;67.09;93807.28;6345965;28;20393;-62
2022/01/15 00:04:02;;;;;;;;;;;;;;;-21.66;66.56;93813.06;6346174;28;19931;-62
2022/01/15 00:07:06;;;;;;;;;;;;;;;-21.68;67.21;93806.38;6330161;28;20010;-61
2022/01/15 00:10:07;;;;;;;;;;;;;;;-21.76;67.43;93807.19;6351271;28;20312;-62
2022/01/15 00:13:20;;;;;;;;;;;;;;;-21.81;66.89;93803.81;6350845;28;20317;-62
2022/01/15 00:16:31;;;;;;;;;;;;;;;-21.87;66.02;93793.78;6350856;28;19923;-62
2022/01/15 00:19:41;;;;;;;;;;;;;;;-21.90;66.19;93788.78;6350708;28;19959;-62
2022/01/15 00:22:46;;;;;;;;;;;;;;;-21.91;65.81;93786.25;6350328;28;19924;-62
2022/01/15 00:25:50;;;;;;;;;;;;;;;-21.97;65.83;93792.03;6350423;28;19923;-62
2022/01/15 00:28:51;;;;;;;;;;;;;;;-21.99;65.55;93791.16;6350412;28;19923;-63
2022/01/15 00:31:52;;;;;;;;;;;;;;;-22.02;65.51;93803.63;6349776;28;19934;-62
2022/01/15 00:35:13;;;;;;;;;;;;;;;-22.03;65.78;93782.84;6350381;28;20381;-63
2022/01/15 00:38:33;;;;;;;;;;;;;;;-22.03;65.46;93787.00;6350448;28;19924;-61
2022/01/15 00:41:53;;;;;;;;;;;;;;;-21.99;66.61;93788.69;6350395;28;19924;-61
2022/01/15 00:45:21;;;;;;;;;;;;;;;-21.92;66.14;93789.59;6350147;28;19928;-62
2022/01/15 00:48:41;;;;;;;;;;;;;;;-21.73;66.58;93791.41;6350057;28;19924;-62
2022/01/15 00:51:48;;;;;;;;;;;;;;;-21.48;66.63;93791.56;6349894;28;19930;-62
2022/01/15 00:54:49;;;;;;;;;;;;;;;-21.05;67.20;93797.63;6349577;28;19931;-62
2022/01/15 00:57:50;;;;;;;;;;;;;;;-20.73;67.01;93789.44;6349297;28;19923;-62
2022/01/15 01:00:51;;;;;;;;;;;;;;;-20.73;66.84;93776.94;6349208;28;19931;-61
2022/01/15 01:03:53;;;;;;;;;;;;;;;-20.93;66.61;93781.88;6330809;28;19928;-63
2022/01/15 01:06:56;;;;;;;;;;;;;;;-21.07;67.36;93784.28;6349776;28;20316;-62
2022/01/15 01:22:56;;;;;;;;;;;;;;;-21.31;67.92;93755.03;6348570;28;19930;-61
2022/01/15 01:26:21;;;;;;;;;;;;;;;-21.28;67.69;93750.06;6330356;28;19924;-61
2022/01/15 01:32:43;;;;;;;;;;;;;;;-21.37;67.55;93753.38;6349060;28;19934;-62
2022/01/15 01:35:50;;;;;;;;;;;;;;;-21.52;67.25;93740.78;6348669;28;20454;-62
2022/01/15 01:38:57;;;;;;;;;;;;;;;-21.53;68.06;93739.13;6348262;28;19928;-62
2022/01/15 01:45:17;;;;;;;;;;;;;;;-21.47;67.99;93755.81;6348593;28;19930;-62
2022/01/15 01:48:18;;;;;;;;;;;;;;;-21.31;67.59;93747.53;6348639;28;19930;-62
2022/01/15 01:51:29;;;;;;;;;;;;;;;-21.17;67.71;93735.13;6348576;28;19924;-63
2022/01/15 01:54:30;;;;;;;;;;;;;;;-21.07;68.32;93734.34;6347555;28;19923;-62
2022/01/15 01:57:34;;;;;;;;;;;;;;;-21.12;67.21;93730.97;6348148;28;19924;-62
2022/01/15 02:00:35;;;;;;;;;;;;;;;-21.18;67.75;93741.78;6348212;28;20305;-61
2022/01/15 02:03:36;;;;;;;;;;;;;;;-21.20;67.45;93747.59;6348004;28;19968;-62
2022/01/15 02:06:40;;;;;;;;;;;;;;;-21.33;67.48;93752.53;6346992;28;19983;-62
2022/01/15 02:09:41;;;;;;;;;;;;;;;-21.48;67.60;93752.47;6348100;28;19928;-62
2022/01/15 02:12:45;;;;;;;;;;;;;;;-21.68;67.40;93752.31;6347952;28;19923;-61
2022/01/15 02:15:46;;;;;;;;;;;;;;;-21.72;67.87;93754.81;6347066;28;19923;-62
2022/01/15 02:18:52;;;;;;;;;;;;;;;-20.97;68.45;93766.03;6347388;28;20416;-63
2022/01/15 02:25:13;;;;;;;;;;;;;;;-20.85;67.78;93756.09;6347685;28;19966;-61
2022/01/15 02:28:15;;;;;;;;;;;;;;;-20.96;68.57;93765.19;6347978;28;19924;-61
2022/01/15 02:31:20;;;;;;;;;;;;;;;-20.86;69.05;93769.41;6347449;28;20405;-61
2022/01/15 02:34:24;;;;;;;;;;;;;;;-20.77;69.28;93758.63;6346964;28;20416;-63
2022/01/15 02:37:29;;;;;;;;;;;;;;;-21.03;69.01;93765.97;6347521;28;20014;-63
2022/01/15 02:40:38;;;;;;;;;;;;;;;-21.13;68.41;93779.28;6346872;28;19924;-61
2022/01/15 02:43:41;;;;;;;;;;;;;;;-21.04;69.64;93764.31;6347374;28;19923;-61
2022/01/15 02:48:00;;;;;;;;;;;;;;;-21.01;68.85;93764.34;6346690;28;19923;-62
2022/01/15 02:50:07;;;;;;;;;;;;;;;-20.81;69.49;93751.09;6328068;28;19924;-62
2022/01/15 02:53:09;;;;;;;;;;;;;;;-20.82;69.61;93757.75;6346094;28;19927;-62
2022/01/15 02:56:10;;;;;;;;;;;;;;;-20.98;69.79;93759.34;6328737;28;19924;-62
2022/01/15 02:59:19;;;;;;;;;;;;;;;-21.14;69.29;93762.59;6346252;28;19986;-62
2022/01/15 03:02:19;;;;;;;;;;;;;;;-21.04;69.91;93771.81;6346411;28;20064;-61
2022/01/15 03:05:21;;;;;;;;;;;;;;;-20.82;70.19;93781.91;6346653;28;19924;-62
2022/01/15 03:08:24;;;;;;;;;;;;;;;-20.76;69.21;93794.44;6346849;28;20017;-63
2022/01/15 03:11:27;;;;;;;;;;;;;;;-20.98;69.74;93804.31;6346398;28;20071;-62
2022/01/15 03:14:31;;;;;;;;;;;;;;;-21.22;69.74;93790.03;6346437;28;19923;-62
2022/01/15 03:17:33;;;;;;;;;;;;;;;-21.34;69.37;93775.84;6346530;28;19934;-62
2022/01/15 03:20:34;;;;;;;;;;;;;;;-21.41;69.78;93769.16;6327846;28;19926;-62
2022/01/15 03:23:35;;;;;;;;;;;;;;;-21.45;69.49;93777.47;6345407;28;20274;-61
2022/01/15 03:26:39;;;;;;;;;;;;;;;-21.27;70.51;93780.84;6346327;28;20450;-61
2022/01/15 03:29:40;;;;;;;;;;;;;;;-21.19;70.31;93774.25;6346378;28;20397;-61
2022/01/15 03:32:44;;;;;;;;;;;;;;;-21.05;69.99;93746.84;6346300;28;19931;-62
2022/01/15 03:35:47;;;;;;;;;;;;;;;-20.69;70.62;93736.13;6346210;28;19924;-62
2022/01/15 03:38:48;;;;;;;;;;;;;;;-20.04;70.23;93725.38;6345269;28;20410;-62
2022/01/15 03:41:49;;;;;;;;;;;;;;;-19.77;69.32;93726.22;6348861;28;19924;-62
2022/01/15 03:44:53;;;;;;;;;;;;;;;-19.52;68.99;93727.84;6353712;28;19923;-62
2022/01/15 03:48:00;;;;;;;;;;;;;;;-19.34;68.57;93726.13;6353334;28;19923;-62
2022/01/15 03:51:03;;;;;;;;;;;;;;;-19.15;69.15;93722.75;6354527;28;19924;-62
2022/01/15 03:54:05;;;;;;;;;;;;;;;-19.04;68.49;93708.53;6327326;28;19924;-62
2022/01/15 03:57:06;;;;;;;;;;;;;;;-18.98;68.45;93709.34;6328515;28;19931;-62
2022/01/15 04:00:12;;;;;;;;;;;;;;;-18.95;67.75;93714.34;6329094;28;19924;-62
2022/01/15 04:03:13;;;;;;;;;;;;;;;-18.83;67.65;93725.13;6328712;28;19924;-62
2022/01/15 04:06:14;;;;;;;;;;;;;;;-18.77;67.69;93731.81;6328565;28;19931;-62
2022/01/15 04:09:17;;;;;;;;;;;;;;;-18.82;68.17;93725.97;6328834;28;19924;-63
2022/01/15 04:12:18;;;;;;;;;;;;;;;-18.86;68.00;93729.34;6328749;28;19930;-62
2022/01/15 04:15:20;;;;;;;;;;;;;;;-19.03;67.89;93727.72;6328397;28;19924;-62
2022/01/15 04:18:23;;;;;;;;;;;;;;;-19.09;68.05;93731.91;6328196;28;19978;-62
2022/01/15 04:21:29;;;;;;;;;;;;;;;-18.94;68.39;93721.00;6328671;28;19924;-62
2022/01/15 04:24:30;;;;;;;;;;;;;;;-18.66;68.10;93732.56;6328414;28;20368;-61
2022/01/15 04:27:31;;;;;;;;;;;;;;;-18.33;67.95;93735.75;6328139;28;20005;-61
2022/01/15 04:30:32;;;;;;;;;;;;;;;-18.25;67.52;93746.59;6328340;28;19951;-62
2022/01/15 04:33:34;;;;;;;;;;;;;;;-18.15;66.64;93740.66;6328859;28;19923;-62
2022/01/15 04:36:37;;;;;;;;;;;;;;;-17.90;66.91;93740.50;6327548;28;20212;-63
2022/01/15 04:39:42;;;;;;;;;;;;;;;-17.72;65.83;93742.81;6326845;28;19931;-63
2022/01/15 04:42:46;;;;;;;;;;;;;;;-17.65;65.80;93736.09;6328499;28;19931;-62
2022/01/15 04:45:47;;;;;;;;;;;;;;;-17.66;66.01;93725.22;6328352;28;19924;-63
2022/01/15 04:48:49;;;;;;;;;;;;;;;-17.48;65.79;93728.41;6328503;28;19924;-62
2022/01/15 04:51:50;;;;;;;;;;;;;;;-17.33;65.92;93723.25;6328059;28;19924;-62
2022/01/15 04:54:54;;;;;;;;;;;;;;;-17.19;65.97;93725.63;6343952;28;19923;-62
2022/01/15 04:57:55;;;;;;;;;;;;;;;-17.09;65.60;93733.94;6349338;28;19931;-61
2022/01/15 05:00:55;;;;;;;;;;;;;;;-16.88;65.35;93728.66;6349789;28;20010;-63
2022/01/15 05:03:56;;;;;;;;;;;;;;;-16.78;65.43;93722.69;6349341;28;19924;-63
2022/01/15 05:07:00;;;;;;;;;;;;;;;-16.63;65.36;93723.31;6349436;28;19923;-63
2022/01/15 05:10:02;;;;;;;;;;;;;;;-16.36;64.62;93728.03;6349612;28;19930;-62
2022/01/15 05:13:06;;;;;;;;;;;;;;;-16.30;64.66;93720.38;6349437;28;19924;-62
2022/01/15 05:16:07;;;;;;;;;;;;;;;-16.05;65.19;93712.47;6349180;28;20296;-62
2022/01/15 05:19:08;;;;;;;;;;;;;;;-16.15;65.46;93718.53;6348670;28;19934;-63
2022/01/15 05:22:09;;;;;;;;;;;;;;;-15.83;64.84;93704.63;6348237;28;19923;-62
2022/01/15 05:25:17;;;;;;;;;;;;;;;-15.89;65.10;93706.38;6349039;28;19924;-62
2022/01/15 05:28:19;;;;;;;;;;;;;;;-15.65;64.96;93714.38;6348437;28;20041;-62
2022/01/15 05:31:24;;;;;;;;;;;;;;;-15.94;65.15;93710.63;6348873;28;19924;-63
2022/01/15 05:34:29;;;;;;;;;;;;;;;-15.83;65.90;93704.63;6347922;28;19923;-63
2022/01/15 05:37:30;;;;;;;;;;;;;;;-15.66;65.36;93710.19;6348282;28;20032;-62
2022/01/15 05:40:33;;;;;;;;;;;;;;;-15.80;64.94;93712.13;6348338;28;19957;-63
2022/01/15 05:43:35;;;;;;;;;;;;;;;-15.59;65.36;93698.31;6347657;28;19923;-63
2022/01/15 05:46:38;;;;;;;;;;;;;;;-15.71;65.07;93694.34;6348537;28;19924;-63
2022/01/15 05:49:39;;;;;;;;;;;;;;;-15.72;64.71;93711.16;6347382;28;19930;-62
2022/01/15 05:52:40;;;;;;;;;;;;;;;-15.90;64.89;93717.31;6346842;28;20018;-63
2022/01/15 05:55:41;;;;;;;;;;;;;;;-15.59;64.73;93719.34;6347500;28;20141;-63
2022/01/15 05:58:48;;;;;;;;;;;;;;;-15.42;64.94;93714.03;6348324;28;19930;-63
2022/01/15 06:01:49;;;;;;;;;;;;;;;-15.48;64.97;93717.47;6347232;28;20416;-62
2022/01/15 06:04:51;;;;;;;;;;;;;;;-15.16;64.61;93709.38;6347683;28;19923;-63
2022/01/15 06:07:55;;;;;;;;;;;;;;;-14.72;64.51;93710.25;6347779;28;20393;-63
2022/01/15 06:10:55;;;;;;;;;;;;;;;-14.41;64.11;93718.88;6347404;28;19924;-63
2022/01/15 06:13:56;;;;;;;;;;;;;;;-14.54;62.78;93718.34;6346860;28;20008;-63
2022/01/15 06:16:59;;;;;;;;;;;;;;;-14.53;62.45;93714.94;6346917;28;19931;-63
2022/01/15 06:20:00;;;;;;;;;;;;;;;-14.56;62.29;93713.28;6329611;28;19924;-63
2022/01/15 06:23:04;;;;;;;;;;;;;;;-14.55;62.48;93711.59;6347448;28;20312;-63
2022/01/15 06:26:07;;;;;;;;;;;;;;;-14.51;62.73;93706.44;6347451;28;19930;-63
2022/01/15 06:29:09;;;;;;;;;;;;;;;-14.47;61.87;93710.56;6346684;28;19924;-63
2022/01/15 06:32:13;;;;;;;;;;;;;;;-14.37;61.34;93711.22;6346785;28;19931;-63
2022/01/15 06:35:16;;;;;;;;;;;;;;;-14.38;61.86;93723.84;6347040;28;19938;-63
2022/01/15 06:38:17;;;;;;;;;;;;;;;-14.42;61.46;93713.00;6346470;28;19924;-63
2022/01/15 06:41:20;;;;;;;;;;;;;;;-14.54;62.12;93704.00;6347204;28;19923;-62
2022/01/15 06:44:22;;;;;;;;;;;;;;;-14.34;62.71;93703.56;6346913;28;20313;-62
2022/01/15 06:47:23;;;;;;;;;;;;;;;-14.31;62.62;93700.97;6347064;28;19928;-65
2022/01/15 06:50:28;;;;;;;;;;;;;;;-14.20;62.57;93702.47;6347073;28;20400;-62
2022/01/15 06:53:32;;;;;;;;;;;;;;;-13.95;62.25;93697.69;6346980;28;19924;-62
2022/01/15 06:56:37;;;;;;;;;;;;;;;-13.73;62.22;93698.88;6346747;28;20393;-62
2022/01/15 06:59:38;;;;;;;;;;;;;;;-13.63;61.41;93705.38;6345908;28;19923;-62
2022/01/15 07:02:40;;;;;;;;;;;;;;;-13.53;60.61;93690.00;6346482;28;19923;-61
2022/01/15 07:05:41;;;;;;;;;;;;;;;-13.36;60.80;93700.53;6345680;28;19931;-62
2022/01/15 07:08:45;;;;;;;;;;;;;;;-13.11;61.21;93693.97;6345992;28;19924;-63
2022/01/15 07:11:46;;;;;;;;;;;;;;;-12.84;60.65;93691.63;6346221;28;20369;-63
2022/01/15 07:14:47;;;;;;;;;;;;;;;-12.75;59.55;93666.03;6346097;28;19924;-62
2022/01/15 07:17:52;;;;;;;;;;;;;;;-12.66;59.37;93670.84;6345580;28;19924;-63
2022/01/15 07:20:54;;;;;;;;;;;;;;;-12.58;58.91;93695.97;6345438;28;19923;-62
2022/01/15 07:23:57;;;;;;;;;;;;;;;-12.39;59.99;93698.84;6345491;28;19924;-63
2022/01/15 07:26:58;;;;;;;;;;;;;;;-12.41;59.07;93704.81;6346187;28;19923;-62
2022/01/15 07:30:01;;;;;;;;;;;;;;;-12.23;58.54;93695.00;6346102;28;20411;-62
2022/01/15 07:33:06;;;;;;;;;;;;;;;-12.57;58.65;93712.81;6345811;28;19924;-63
2022/01/15 07:36:07;;;;;;;;;;;;;;;-12.60;59.83;93719.69;6344775;28;19951;-63
2022/01/15 07:39:11;;;;;;;;;;;;;;;-12.61;59.61;93718.03;6346049;28;19923;-62
2022/01/15 07:42:12;;;;;;;;;;;;;;;-12.58;59.87;93702.75;6344734;28;20293;-63
2022/01/15 07:45:16;;;;;;;;;;;;;;;-12.89;60.69;93708.63;6345744;28;19924;-63
2022/01/15 07:48:17;;;;;;;;;;;;;;;-12.74;61.57;93718.31;6345069;28;19923;-62
2022/01/15 07:51:21;;;;;;;;;;;;;;;-12.48;61.08;93719.34;6346036;28;19926;-62
2022/01/15 07:54:22;;;;;;;;;;;;;;;-12.11;60.86;93713.28;6345653;28;19924;-63
2022/01/15 07:57:24;;;;;;;;;;;;;;;-11.94;60.83;93697.53;6345600;28;19931;-62
2022/01/15 08:00:30;;;;;;;;;;;;;;;-11.78;60.14;93701.25;6345683;28;19924;-63
2022/01/15 08:03:31;;;;;;;;;;;;;;;-11.99;60.63;93672.34;6345804;28;20040;-62
2022/01/15 08:06:32;;;;;;;;;;;;;;;-11.97;60.88;93680.75;6345164;28;19931;-62
2022/01/15 08:09:33;;;;;;;;;;;;;;;-11.79;60.51;93680.16;6345409;28;19928;-62
2022/01/15 08:12:47;;;;;;;;;;;;;;;-11.70;59.45;93663.00;6345584;28;19923;-62
2022/01/15 08:15:51;;;;;;;;;;;;;;;-11.88;60.33;93652.56;6345496;28;19934;-63
2022/01/15 08:18:52;;;;;;;;;;;;;;;-11.81;60.96;93633.72;6344972;28;20361;-62
2022/01/15 08:21:54;;;;;;;;;;;;;;;-12.02;60.82;93636.97;6345393;28;19931;-62
2022/01/15 08:24:55;;;;;;;;;;;;;;;-12.22;61.56;93632.47;6345329;28;20360;-62
2022/01/15 08:27:59;;;;;;;;;;;;;;;-12.38;62.67;93606.75;6347305;28;19938;-61
2022/01/15 08:31:02;;;;;;;;;;;;;;;-12.09;62.11;93602.53;6350411;28;20397;-62
2022/01/15 08:34:03;;;;;;;;;;;;;;;-12.19;62.60;93603.69;6349858;28;19924;-62
2022/01/15 08:37:04;;;;;;;;;;;;;;;-12.16;63.31;93613.75;6348452;28;19927;-62
2022/01/15 08:40:09;;;;;;;;;;;;;;;-12.06;62.70;93615.09;6331862;28;19930;-63
2022/01/15 08:43:10;;;;;;;;;;;;;;;-12.26;63.61;93614.00;6349956;28;19920;-63
2022/01/15 08:46:11;;;;;;;;;;;;;;;-12.03;63.09;93610.78;6349957;28;20308;-63
2022/01/15 08:49:15;;;;;;;;;;;;;;;-12.03;63.48;93623.47;6349080;28;19923;-63
2022/01/15 08:52:16;;;;;;;;;;;;;;;-12.17;63.77;93622.19;6349605;28;19924;-63
2022/01/15 08:55:17;;;;;;;;;;;;;;;-12.06;63.89;93615.09;6348255;28;19930;-63
2022/01/15 08:58:19;;;;;;;;;;;;;;;-11.76;63.48;93603.97;6349621;28;19947;-61
2022/01/15 09:01:22;;;;;;;;;;;;;;;-11.69;62.94;93613.91;6348846;28;20317;-64
2022/01/15 09:04:24;;;;;;;;;;;;;;;-11.67;63.91;93623.16;6349282;28;19924;-63
2022/01/15 09:07:25;;;;;;;;;;;;;;;-11.51;63.60;93623.50;6349598;28;19931;-62
2022/01/15 09:10:30;;;;;;;;;;;;;;;-11.72;63.50;93619.09;6349425;28;19928;-63
2022/01/15 09:13:34;;;;;;;;;;;;;;;-11.53;64.08;93610.03;6349132;28;19924;-63
2022/01/15 09:16:37;;;;;;;;;;;;;;;-11.53;63.45;93620.16;6348974;28;19923;-63
2022/01/15 09:19:38;;;;;;;;;;;;;;;-11.52;64.55;93626.88;6348133;28;20301;-63
2022/01/15 09:22:40;;;;;;;;;;;;;;;-11.53;64.71;93598.16;6348965;28;19926;-63
2022/01/15 09:25:40;;;;;;;;;;;;;;;-11.44;64.86;93603.81;6348764;28;19966;-63
2022/01/15 09:32:04;;;;;;;;;;;;;;;-11.24;64.49;93623.47;6347997;28;20351;-62
2022/01/15 09:35:06;;;;;;;;;;;;;;;-11.44;64.94;93604.63;6348767;28;19965;-62
2022/01/15 09:38:10;;;;;;;;;;;;;;;-11.41;65.27;93576.63;6349093;28;19935;-62
2022/01/15 09:41:11;;;;;;;;;;;;;;;-11.33;65.00;93558.63;6347259;28;20335;-63
2022/01/15 09:44:13;;;;;;;;;;;;;;;-11.24;64.87;93585.38;6347802;28;19923;-63
2022/01/15 09:47:17;;;;;;;;;;;;;;;-11.21;64.75;93573.41;6348046;28;19938;-63
2022/01/15 09:50:22;;;;;;;;;;;;;;;-11.33;65.16;93573.84;6348341;28;19924;-63
2022/01/15 09:53:25;;;;;;;;;;;;;;;-11.28;64.84;93568.63;6347005;28;19923;-63
2022/01/15 09:56:29;;;;;;;;;;;;;;;-11.36;65.66;93567.16;6346992;28;20250;-62
2022/01/15 09:59:30;;;;;;;;;;;;;;;-11.26;66.06;93566.84;6347360;28;20381;-61
2022/01/15 10:02:31;;;;;;;;;;;;;;;-11.28;65.41;93576.25;6347878;28;19924;-63
2022/01/15 10:05:33;;;;;;;;;;;;;;;-11.26;65.97;93566.84;6329310;28;20065;-63
2022/01/15 10:08:34;;;;;;;;;;;;;;;-11.15;66.29;93565.63;6347389;28;19924;-62
2022/01/15 10:11:53;;;;;;;;;;;;;;;-11.07;66.13;93545.03;6347857;28;19928;-63
2022/01/15 10:15:02;;;;;;;;;;;;;;;-11.37;66.46;93545.22;6347577;28;20019;-63
2022/01/15 10:18:17;;;;;;;;;;;;;;;-11.33;66.93;93551.81;6345858;28;19924;-62
2022/01/15 10:21:19;;;;;;;;;;;;;;;-11.11;66.81;93546.84;6346822;28;19923;-62
2022/01/15 10:24:26;;;;;;;;;;;;;;;-10.97;66.29;93538.75;6346326;28;20438;-62
2022/01/15 10:27:30;;;;;;;;;;;;;;;-11.11;66.37;93526.53;6346597;28;19924;-63
2022/01/15 10:30:34;;;;;;;;;;;;;;;-11.17;67.09;93525.94;6347322;28;19923;-63
2022/01/15 10:33:35;;;;;;;;;;;;;;;-11.14;67.38;93531.72;6346806;28;19924;-62
2022/01/15 10:36:36;;;;;;;;;;;;;;;-11.01;67.45;93542.28;6345956;28;19923;-62
2022/01/15 10:39:37;;;;;;;;;;;;;;;-11.19;67.23;93525.16;6347085;28;19927;-62
2022/01/15 10:42:38;;;;;;;;;;;;;;;-11.15;67.72;93519.06;6347251;28;19924;-64
2022/01/15 10:45:48;;;;;;;;;;;;;;;-11.02;67.85;93535.53;6345961;28;19924;-64
2022/01/15 10:48:49;;;;;;;;;;;;;;;-11.05;67.81;93540.72;6346376;28;20285;-62
2022/01/15 10:52:08;;;;;;;;;;;;;;;-10.99;68.08;93530.34;6328088;28;19924;-63
2022/01/15 10:55:11;;;;;;;;;;;;;;;-10.92;68.28;93544.50;6346185;28;19930;-63
2022/01/15 10:58:13;;;;;;;;;;;;;;;-10.85;68.24;93545.09;6346500;28;19932;-63
2022/01/15 11:01:25;;;;;;;;;;;;;;;-10.85;67.87;93543.38;6346229;28;19931;-63
2022/01/15 11:04:34;;;;;;;;;;;;;;;-10.86;68.08;93531.56;6346467;28;19924;-63
2022/01/15 11:07:36;;;;;;;;;;;;;;;-10.85;68.47;93537.47;6345679;28;19968;-63
2022/01/15 11:10:42;;;;;;;;;;;;;;;-10.81;68.25;93533.97;6345453;28;19923;-63
2022/01/15 11:13:48;;;;;;;;;;;;;;;-10.78;68.35;93527.91;6345860;28;19923;-62
2022/01/15 11:16:54;;;;;;;;;;;;;;;-10.67;68.49;93520.72;6345835;28;19995;-63
2022/01/15 11:19:56;;;;;;;;;;;;;;;-10.69;68.52;93517.44;6345103;28;19931;-63
2022/01/15 11:22:59;;;;;;;;;;;;;;;-10.69;68.66;93510.63;6345574;28;19923;-63
2022/01/15 11:26:02;;;;;;;;;;;;;;;-10.66;68.63;93517.31;6345750;28;19934;-63
2022/01/15 11:29:05;;;;;;;;;;;;;;;-10.59;68.54;93510.28;6346160;28;19924;-62
2022/01/15 11:32:07;;;;;;;;;;;;;;;-10.60;68.65;93504.38;6345339;28;19930;-62
2022/01/15 11:35:11;;;;;;;;;;;;;;;-10.50;68.67;93498.06;6346025;28;20386;-62
2022/01/15 11:38:30;;;;;;;;;;;;;;;-10.48;68.58;93491.19;6345140;28;19931;-62
2022/01/15 11:41:31;;;;;;;;;;;;;;;-10.42;68.80;93487.59;6345062;28;19946;-62
2022/01/15 11:44:33;;;;;;;;;;;;;;;-10.43;68.58;93471.53;6345812;28;19928;-63
2022/01/15 11:47:35;;;;;;;;;;;;;;;-10.38;68.89;93460.38;6345865;28;19919;-62
2022/01/15 11:50:36;;;;;;;;;;;;;;;-10.26;68.77;93475.09;6345974;28;19930;-62
2022/01/15 11:53:59;;;;;;;;;;;;;;;-10.17;68.83;93464.56;6344932;28;20002;-62
2022/01/15 11:57:03;;;;;;;;;;;;;;;-10.10;68.42;93460.91;6345548;28;19924;-62
2022/01/15 12:00:04;;;;;;;;;;;;;;;-10.10;68.48;93465.97;6344459;28;20287;-61
2022/01/15 12:03:07;;;;;;;;;;;;;;;-10.13;68.29;93465.25;6347484;28;19930;-63
2022/01/15 12:06:08;;;;;;;;;;;;;;;-10.16;68.51;93458.59;6350566;28;19930;-62
2022/01/15 12:09:27;;;;;;;;;;;;;;;-10.18;68.82;93447.66;6350265;28;19923;-61
2022/01/15 12:12:38;;;;;;;;;;;;;;;-10.18;68.86;93442.59;6349944;28;19931;-62
2022/01/15 12:15:39;;;;;;;;;;;;;;;-10.24;68.86;93422.50;6350246;28;19931;-63
2022/01/15 12:18:43;;;;;;;;;;;;;;;-10.24;68.98;93423.31;6350328;28;20334;-62
2022/01/15 12:21:45;;;;;;;;;;;;;;;-10.23;69.01;93413.97;6350080;28;19947;-63
2022/01/15 12:24:52;;;;;;;;;;;;;;;-10.21;69.17;93414.75;6350062;28;19924;-63
2022/01/15 12:28:04;;;;;;;;;;;;;;;-10.16;69.20;93400.13;6350204;28;19945;-63
2022/01/15 12:31:06;;;;;;;;;;;;;;;-10.08;69.11;93400.63;6349306;28;19924;-63
2022/01/15 12:34:07;;;;;;;;;;;;;;;-10.02;69.02;93387.69;6349879;28;19928;-62
2022/01/15 12:37:14;;;;;;;;;;;;;;;-9.96;68.96;93382.31;6350136;28;19924;-62
2022/01/15 12:40:19;;;;;;;;;;;;;;;-9.95;68.83;93378.88;6349165;28;19928;-63
2022/01/15 12:43:20;;;;;;;;;;;;;;;-9.95;68.94;93373.78;6349802;28;19924;-63
2022/01/15 12:46:24;;;;;;;;;;;;;;;-9.91;68.98;93373.66;6349712;28;19923;-62
2022/01/15 12:49:35;;;;;;;;;;;;;;;-9.86;68.92;93387.03;6348664;28;19924;-62
2022/01/15 12:52:36;;;;;;;;;;;;;;;-9.85;69.08;93378.50;6349419;28;19923;-63
2022/01/15 12:55:37;;;;;;;;;;;;;;;-9.82;69.10;93371.56;6349554;28;19924;-62
2022/01/15 12:58:39;;;;;;;;;;;;;;;-9.79;68.71;93366.34;6348657;28;19924;-62
2022/01/15 13:01:40;;;;;;;;;;;;;;;-9.78;68.78;93354.44;6348813;28;19969;-62
2022/01/15 13:04:41;;;;;;;;;;;;;;;-9.79;68.77;93348.53;6349380;28;19988;-63
2022/01/15 13:07:51;;;;;;;;;;;;;;;-9.83;68.53;93349.56;6349493;28;19924;-63
2022/01/15 13:10:57;;;;;;;;;;;;;;;-9.84;68.70;93340.28;6349514;28;19931;-63
2022/01/15 13:14:07;;;;;;;;;;;;;;;-9.81;69.10;93344.41;6348209;28;19931;-61
2022/01/15 13:17:21;;;;;;;;;;;;;;;-9.76;68.73;93329.78;6349259;28;20305;-63
2022/01/15 13:20:26;;;;;;;;;;;;;;;-9.74;68.94;93338.16;6348521;28;19928;-64
2022/01/15 13:23:36;;;;;;;;;;;;;;;-9.69;68.77;93338.78;6348172;28;19928;-62
2022/01/15 13:26:47;;;;;;;;;;;;;;;-9.66;68.65;93346.28;6348729;28;19932;-63
2022/01/15 13:29:48;;;;;;;;;;;;;;;-9.65;68.67;93355.59;6348692;28;20316;-62
2022/01/15 13:33:00;;;;;;;;;;;;;;;-9.75;68.68;93354.31;6347616;28;19923;-62
2022/01/15 13:36:05;;;;;;;;;;;;;;;-9.97;68.80;93360.31;6347690;28;20297;-62
2022/01/15 13:39:09;;;;;;;;;;;;;;;-10.07;68.60;93359.06;6348580;28;19924;-63
2022/01/15 13:42:23;;;;;;;;;;;;;;;-10.48;68.17;93343.81;6348088;28;19965;-62
2022/01/15 13:45:32;;;;;;;;;;;;;;;-10.83;68.80;93341.88;6348457;28;19920;-65
2022/01/15 13:48:34;;;;;;;;;;;;;;;-11.06;69.03;93361.38;6347868;28;20006;-63
2022/01/15 13:55:07;;;;;;;;;;;;;;;-11.19;69.49;93360.19;6347439;28;19981;-62
2022/01/15 13:58:16;;;;;;;;;;;;;;;-11.32;69.44;93354.75;6347438;28;20385;-63
2022/01/15 14:01:21;;;;;;;;;;;;;;;-11.41;69.50;93363.50;6348163;28;19923;-62
2022/01/15 14:04:30;;;;;;;;;;;;;;;-11.48;69.40;93373.97;6347321;28;19926;-62
2022/01/15 14:07:35;;;;;;;;;;;;;;;-11.59;69.23;93374.34;6348091;28;20372;-63
2022/01/15 14:10:38;;;;;;;;;;;;;;;-11.60;69.65;93377.75;6347632;28;20391;-63
2022/01/15 14:13:39;;;;;;;;;;;;;;;-11.61;69.20;93374.38;6347286;28;20022;-62
2022/01/15 14:16:41;;;;;;;;;;;;;;;-11.74;69.02;93357.97;6346959;28;19923;-63
2022/01/15 14:22:59;;;;;;;;;;;;;;;-11.93;69.39;93377.28;6346907;28;19931;-62
2022/01/15 14:26:23;;;;;;;;;;;;;;;-11.88;69.29;93376.22;6347113;28;19924;-62
2022/01/15 14:29:25;;;;;;;;;;;;;;;-11.68;69.25;93372.13;6345959;28;20296;-62
2022/01/15 14:32:28;;;;;;;;;;;;;;;-11.89;68.61;93373.75;6347402;28;19923;-62
2022/01/15 14:35:32;;;;;;;;;;;;;;;-11.95;69.12;93359.56;6347280;28;20305;-62
2022/01/15 14:38:33;;;;;;;;;;;;;;;-11.89;69.01;93373.75;6346426;28;19966;-63
2022/01/15 14:41:35;;;;;;;;;;;;;;;-11.79;69.09;93369.97;6347422;28;19938;-64
2022/01/15 14:44:36;;;;;;;;;;;;;;;-11.74;69.14;93378.25;6347261;28;20406;-64
2022/01/15 14:47:37;;;;;;;;;;;;;;;-11.68;68.80;93372.13;6346238;28;19930;-63
2022/01/15 14:50:43;;;;;;;;;;;;;;;-11.69;68.69;93375.53;6346914;28;19923;-64
2022/01/15 14:53:44;;;;;;;;;;;;;;;-11.59;68.83;93366.72;6347039;28;19924;-63
2022/01/15 14:56:45;;;;;;;;;;;;;;;-11.65;68.57;93369.50;6345829;28;19943;-62
2022/01/15 14:59:46;;;;;;;;;;;;;;;-11.73;68.42;93371.47;6346341;28;19923;-63
2022/01/15 15:02:47;;;;;;;;;;;;;;;-11.82;68.38;93348.09;6346364;28;19920;-63
2022/01/15 15:05:48;;;;;;;;;;;;;;;-11.83;68.89;93359.13;6345670;28;19938;-63
2022/01/15 15:08:52;;;;;;;;;;;;;;;-11.72;68.82;93365.50;6346545;28;19919;-63
2022/01/15 15:11:53;;;;;;;;;;;;;;;-11.70;68.77;93353.59;6346494;28;20316;-64
2022/01/15 15:14:56;;;;;;;;;;;;;;;-11.67;68.83;93364.47;6345693;28;20393;-62
2022/01/15 15:17:57;;;;;;;;;;;;;;;-11.69;68.76;93361.19;6345949;28;19931;-62
2022/01/15 15:21:01;;;;;;;;;;;;;;;-11.77;68.78;93353.00;6346599;28;19924;-62
2022/01/15 15:24:05;;;;;;;;;;;;;;;-11.70;68.98;93353.59;6346440;28;19924;-63
2022/01/15 15:27:08;;;;;;;;;;;;;;;-11.67;68.97;93356.03;6345552;28;20031;-63
2022/01/15 15:30:10;;;;;;;;;;;;;;;-11.57;68.98;93347.22;6345337;28;19993;-63
2022/01/15 15:33:11;;;;;;;;;;;;;;;-11.52;68.72;93340.25;6345347;28;19923;-64
2022/01/15 15:36:15;;;;;;;;;;;;;;;-11.45;68.88;93329.00;6345394;28;19928;-63
2022/01/15 15:39:16;;;;;;;;;;;;;;;-11.39;68.92;93330.47;6327196;28;19924;-62
2022/01/15 15:42:17;;;;;;;;;;;;;;;-11.27;69.26;93336.78;6346043;28;20023;-63
2022/01/15 15:45:21;;;;;;;;;;;;;;;-11.17;69.40;93336.41;6346017;28;20650;-64
2022/01/15 15:48:22;;;;;;;;;;;;;;;-11.08;69.00;93348.72;6345190;28;19923;-63
2022/01/15 15:51:28;;;;;;;;;;;;;;;-10.99;68.67;93350.09;6345854;28;19924;-64
2022/01/15 15:54:32;;;;;;;;;;;;;;;-10.93;68.74;93362.53;6345841;28;19924;-63
2022/01/15 15:57:38;;;;;;;;;;;;;;;-10.83;68.24;93369.81;6345697;28;19931;-62
2022/01/15 16:00:39;;;;;;;;;;;;;;;-10.88;68.26;93378.44;6327719;28;19923;-62
2022/01/15 16:03:46;;;;;;;;;;;;;;;-10.95;68.47;93392.25;6345946;28;19920;-64
2022/01/15 16:06:47;;;;;;;;;;;;;;;-11.03;68.67;93376.50;6345322;28;20416;-62
2022/01/15 16:09:48;;;;;;;;;;;;;;;-11.04;68.74;93399.38;6327393;28;19927;-64
2022/01/15 16:12:52;;;;;;;;;;;;;;;-11.10;68.71;93385.19;6345073;28;19920;-63
2022/01/15 16:15:55;;;;;;;;;;;;;;;-11.07;68.81;93385.09;6345572;28;19924;-62
2022/01/15 16:18:57;;;;;;;;;;;;;;;-11.04;68.95;93390.03;6345614;28;20422;-64